Time;durP1;ratioP1;P1;durP2;ratioP2;P2;SDS_P1;SDS_P2;PMS_P1;PMS_P2;Temp;Humidity;BMP_temperature;BMP_pressure;BME280_temperature;BME280_humidity;BME280_pressure;Samples;Min_cycle;Max_cycle;Signal;HPM_P1;HPM_P2
2021/08/05 00:01:20;;;;;;;4.57;4.03;;;14.40;99.90;;;;;;4994782;28;20047;-68
2021/08/05 00:03:45;;;;;;;6.85;4.00;;;14.40;99.90;;;;;;4986199;28;20051;-68
2021/08/05 00:06:11;;;;;;;4.35;3.58;;;14.40;99.90;;;;;;4986494;28;20046;-68
2021/08/05 00:08:38;;;;;;;4.35;3.33;;;14.30;99.90;;;;;;4987506;28;20046;-68
2021/08/05 00:11:04;;;;;;;4.28;3.88;;;14.30;99.90;;;;;;4986446;28;20042;-68
2021/08/05 00:13:30;;;;;;;4.65;3.55;;;14.30;99.90;;;;;;4986006;28;20047;-68
2021/08/05 00:15:56;;;;;;;3.97;3.28;;;14.20;99.90;;;;;;4986322;28;20051;-68
2021/08/05 00:18:22;;;;;;;4.18;3.78;;;14.30;99.90;;;;;;4985930;28;20050;-68
2021/08/05 00:20:48;;;;;;;6.05;4.00;;;14.30;99.90;;;;;;4986479;28;20039;-68
2021/08/05 00:23:14;;;;;;;6.78;4.25;;;14.20;99.90;;;;;;4986030;28;20047;-68
2021/08/05 00:25:40;;;;;;;5.63;4.63;;;14.20;99.90;;;;;;4986449;28;20141;-68
2021/08/05 00:28:08;;;;;;;5.25;4.50;;;14.30;99.90;;;;;;4968886;28;20050;-68
2021/08/05 00:30:34;;;;;;;6.68;4.78;;;14.40;99.90;;;;;;4986397;28;20046;-68
2021/08/05 00:33:00;;;;;;;5.80;4.32;;;14.50;99.90;;;;;;4985968;28;20070;-68
2021/08/05 00:35:26;;;;;;;4.97;4.43;;;14.50;99.90;;;;;;4994644;28;20089;-68
2021/08/05 00:37:51;;;;;;;4.38;3.97;;;14.40;99.90;;;;;;4985659;28;20490;-68
2021/08/05 00:40:18;;;;;;;6.18;4.43;;;14.40;99.90;;;;;;4985832;28;20126;-68
2021/08/05 00:42:44;;;;;;;5.90;4.15;;;14.40;99.90;;;;;;4958511;28;20061;-68
2021/08/05 00:45:10;;;;;;;5.55;3.72;;;14.40;99.90;;;;;;4986290;28;20102;-68
2021/08/05 00:47:35;;;;;;;4.85;3.78;;;14.30;99.90;;;;;;4985876;28;20039;-68
2021/08/05 00:50:02;;;;;;;4.93;4.30;;;14.20;99.90;;;;;;4985613;28;20089;-68
2021/08/05 00:52:28;;;;;;;6.72;5.00;;;14.10;99.90;;;;;;4985531;28;20070;-68
2021/08/05 00:54:54;;;;;;;5.22;4.15;;;14.10;99.90;;;;;;4985738;28;20047;-68
2021/08/05 00:57:20;;;;;;;5.07;4.32;;;14.10;99.90;;;;;;4973542;28;20106;-68
2021/08/05 00:59:46;;;;;;;4.88;3.88;;;14.00;99.90;;;;;;4993798;28;20042;-68
2021/08/05 01:02:16;;;;;;;5.93;3.30;;;13.90;99.90;;;;;;4952769;28;20058;-68
2021/08/05 01:04:46;;;;;;;4.15;3.58;;;13.80;99.90;;;;;;4985607;28;20118;-68
2021/08/05 01:07:43;;;;;;;4.57;3.83;;;13.80;99.90;;;;;;4985480;28;20054;-68
2021/08/05 01:10:16;;;;;;;4.90;3.80;;;13.70;99.90;;;;;;4985952;28;20396;-67
2021/08/05 01:12:54;;;;;;;5.30;3.70;;;13.60;99.90;;;;;;4985896;28;20043;-68
2021/08/05 01:15:23;;;;;;;3.55;3.25;;;13.50;99.90;;;;;;4986669;28;20105;-67
2021/08/05 01:18:05;;;;;;;5.03;3.23;;;13.50;99.90;;;;;;4985931;28;20035;-68
2021/08/05 01:20:31;;;;;;;7.18;4.45;;;13.40;99.90;;;;;;4985593;28;20106;-68
2021/08/05 01:23:04;;;;;;;4.82;4.20;;;13.30;99.90;;;;;;4985155;28;20043;-68
2021/08/05 01:25:44;;;;;;;5.05;4.32;;;13.30;99.90;;;;;;4986026;28;20050;-68
2021/08/05 01:28:11;;;;;;;5.18;4.45;;;13.30;99.90;;;;;;4984888;28;20102;-68
2021/08/05 01:30:44;;;;;;;5.05;4.15;;;13.30;99.90;;;;;;4985711;28;20050;-68
2021/08/05 01:33:12;;;;;;;8.70;4.35;;;13.30;99.90;;;;;;4985160;28;20093;-68
2021/08/05 01:35:40;;;;;;;6.32;4.85;;;13.40;99.90;;;;;;4985668;28;20043;-68
2021/08/05 01:38:07;;;;;;;6.00;4.78;;;13.40;99.90;;;;;;4985344;28;20607;-68
2021/08/05 01:40:35;;;;;;;5.03;4.10;;;13.50;99.90;;;;;;4985236;28;20526;-68
2021/08/05 01:43:01;;;;;;;4.78;4.07;;;13.40;99.90;;;;;;4984369;28;20046;-68
2021/08/05 01:45:28;;;;;;;6.95;4.43;;;13.30;99.90;;;;;;4985966;28;20051;-68
2021/08/05 01:47:55;;;;;;;7.03;4.70;;;13.20;99.90;;;;;;4989731;28;20133;-68
2021/08/05 01:50:22;;;;;;;5.32;4.57;;;13.20;99.90;;;;;;4989963;28;20054;-68
2021/08/05 01:52:49;;;;;;;5.93;4.65;;;13.10;99.90;;;;;;4988623;28;20107;-68
2021/08/05 01:55:14;;;;;;;4.93;3.95;;;13.10;99.90;;;;;;4988808;28;20062;-68
2021/08/05 01:57:41;;;;;;;5.90;4.20;;;13.00;99.90;;;;;;4989313;28;20631;-68
2021/08/05 02:00:09;;;;;;;5.53;4.13;;;12.90;99.90;;;;;;4999583;28;20054;-68
2021/08/05 02:02:36;;;;;;;5.40;4.90;;;12.80;99.90;;;;;;4990517;28;20053;-68
2021/08/05 02:05:22;;;;;;;6.82;5.22;;;12.80;99.90;;;;;;4971329;28;20054;-68
2021/08/05 02:08:02;;;;;;;5.07;4.00;;;12.80;99.90;;;;;;4986224;28;20039;-68
2021/08/05 02:10:36;;;;;;;5.57;3.63;;;12.70;99.90;;;;;;4989547;28;20047;-68
2021/08/05 02:13:17;;;;;;;5.70;3.65;;;12.60;99.90;;;;;;4976249;28;20047;-68
2021/08/05 02:15:48;;;;;;;4.80;3.75;;;12.60;99.90;;;;;;4988421;28;20111;-67
2021/08/05 02:18:14;;;;;;;5.57;4.15;;;12.60;99.90;;;;;;4971187;28;20047;-68
2021/08/05 02:20:43;;;;;;;5.85;4.90;;;12.50;99.90;;;;;;4988477;28;20047;-68
2021/08/05 02:23:19;;;;;;;7.90;5.10;;;12.40;99.90;;;;;;4988171;28;20043;-67
2021/08/05 02:25:49;;;;;;;5.65;4.60;;;12.40;99.90;;;;;;4971214;28;20373;-68
2021/08/05 02:28:16;;;;;;;7.63;6.00;;;12.50;99.90;;;;;;4988371;28;20535;-67
2021/08/05 02:30:42;;;;;;;7.28;5.43;;;12.50;99.90;;;;;;4987887;28;20051;-67
2021/08/05 02:33:09;;;;;;;6.85;5.45;;;12.50;99.90;;;;;;4988246;28;20502;-68
2021/08/05 02:35:38;;;;;;;6.07;5.47;;;12.50;99.90;;;;;;4988604;28;20097;-68
2021/08/05 02:38:04;;;;;;;8.80;5.35;;;12.50;99.90;;;;;;4988053;28;20073;-68
2021/08/05 02:40:33;;;;;;;7.35;4.97;;;12.50;99.90;;;;;;4988568;28;20041;-68
2021/08/05 02:43:02;;;;;;;7.60;5.68;;;12.50;99.90;;;;;;4987878;28;20066;-68
2021/08/05 02:45:29;;;;;;;5.80;4.57;;;12.50;99.90;;;;;;4987780;28;20053;-68
2021/08/05 02:47:55;;;;;;;5.40;4.45;;;12.50;99.90;;;;;;4988406;28;20070;-68
2021/08/05 02:50:21;;;;;;;5.88;4.10;;;12.40;99.90;;;;;;4988319;28;20451;-68
2021/08/05 02:52:47;;;;;;;6.95;5.20;;;12.40;99.90;;;;;;4988697;28;20097;-68
2021/08/05 02:55:14;;;;;;;6.10;5.20;;;12.40;99.90;;;;;;4970787;28;20039;-67
2021/08/05 02:57:40;;;;;;;5.85;5.13;;;12.40;99.90;;;;;;4987244;28;20455;-68
2021/08/05 03:00:07;;;;;;;5.90;5.20;;;12.40;99.90;;;;;;4995064;28;20518;-68
2021/08/05 03:02:35;;;;;;;5.68;4.45;;;12.40;99.90;;;;;;4987462;28;20050;-68
2021/08/05 03:05:01;;;;;;;6.47;4.65;;;12.30;99.90;;;;;;4987648;28;20043;-68
2021/08/05 03:07:27;;;;;;;6.78;5.05;;;12.20;99.90;;;;;;4988163;28;20058;-67
2021/08/05 03:09:53;;;;;;;6.60;5.28;;;12.20;99.90;;;;;;4987862;28;20050;-68
2021/08/05 03:12:19;;;;;;;6.90;5.55;;;12.20;99.90;;;;;;4988423;28;20047;-68
2021/08/05 03:14:45;;;;;;;5.47;4.05;;;12.20;99.90;;;;;;4987790;28;20043;-68
2021/08/05 03:17:12;;;;;;;6.03;5.43;;;12.20;99.90;;;;;;4988540;28;20513;-68
2021/08/05 03:19:38;;;;;;;5.68;5.07;;;12.20;99.90;;;;;;4987676;28;20043;-67
2021/08/05 03:22:04;;;;;;;6.90;5.72;;;12.20;99.90;;;;;;4987134;28;20126;-67
2021/08/05 03:24:30;;;;;;;6.68;5.90;;;12.20;99.90;;;;;;4953878;28;20042;-68
2021/08/05 03:26:57;;;;;;;6.10;5.50;;;12.20;99.90;;;;;;4987329;28;20047;-68
2021/08/05 03:29:22;;;;;;;7.00;6.00;;;12.20;99.90;;;;;;4985841;28;20050;-67
2021/08/05 03:31:48;;;;;;;10.38;6.18;;;12.10;99.90;;;;;;4987564;28;20070;-68
2021/08/05 03:34:14;;;;;;;6.70;6.00;;;12.00;99.90;;;;;;4986917;28;20110;-67
2021/08/05 03:36:41;;;;;;;6.70;6.00;;;11.90;99.90;;;;;;4970220;28;20132;-68
2021/08/05 03:39:07;;;;;;;6.90;5.70;;;11.90;99.90;;;;;;4986983;28;20043;-68
2021/08/05 03:41:34;;;;;;;7.50;6.60;;;11.90;99.90;;;;;;4979343;28;20046;-68
2021/08/05 03:44:00;;;;;;;7.50;6.57;;;11.90;99.90;;;;;;4986260;28;20066;-67
2021/08/05 03:46:25;;;;;;;7.55;6.20;;;11.90;99.90;;;;;;4987236;28;20110;-68
2021/08/05 03:48:51;;;;;;;7.63;5.80;;;11.90;99.90;;;;;;4986651;28;20043;-68
2021/08/05 03:51:17;;;;;;;8.98;6.40;;;11.90;99.90;;;;;;4986685;28;20480;-68
2021/08/05 03:53:43;;;;;;;6.85;4.97;;;11.90;99.90;;;;;;4986979;28;20049;-68
2021/08/05 03:56:09;;;;;;;7.97;7.15;;;12.00;99.90;;;;;;4987045;28;20065;-68
2021/08/05 03:58:35;;;;;;;8.95;7.45;;;12.10;99.90;;;;;;4986680;28;20277;-67
2021/08/05 04:01:02;;;;;;;8.48;7.57;;;12.30;99.90;;;;;;4994314;28;20046;-67
2021/08/05 04:03:28;;;;;;;8.30;6.38;;;12.40;99.90;;;;;;4986816;28;20427;-68
2021/08/05 04:05:54;;;;;;;5.57;4.70;;;12.40;99.90;;;;;;4986540;28;20067;-69
2021/08/05 04:08:19;;;;;;;6.45;4.88;;;12.40;99.90;;;;;;4986300;28;20090;-68
2021/08/05 04:10:45;;;;;;;7.30;5.60;;;12.40;99.90;;;;;;4986279;28;20054;-68
2021/08/05 04:13:13;;;;;;;8.27;5.43;;;12.40;99.90;;;;;;4969113;28;20555;-68
2021/08/05 04:15:41;;;;;;;7.22;5.75;;;12.30;99.90;;;;;;4954601;28;20042;-68
2021/08/05 04:18:07;;;;;;;8.00;6.55;;;12.40;99.90;;;;;;4986996;28;20102;-68
2021/08/05 04:20:33;;;;;;;7.38;5.53;;;12.50;99.90;;;;;;4987136;28;20049;-68
2021/08/05 04:22:59;;;;;;;7.60;5.75;;;12.70;99.90;;;;;;4986413;28;20058;-68
2021/08/05 04:25:25;;;;;;;8.32;6.88;;;12.80;99.90;;;;;;4986665;28;20098;-68
2021/08/05 04:27:50;;;;;;;6.93;6.07;;;12.70;99.90;;;;;;4984905;28;20162;-67
2021/08/05 04:30:16;;;;;;;6.63;5.93;;;12.70;99.90;;;;;;4969649;28;20047;-68
2021/08/05 04:32:42;;;;;;;8.32;6.78;;;12.70;99.90;;;;;;4986470;28;20054;-68
2021/08/05 04:35:10;;;;;;;8.18;6.68;;;12.70;99.90;;;;;;4985599;28;20111;-67
2021/08/05 04:37:54;;;;;;;8.65;7.63;;;12.70;99.90;;;;;;4985816;28;20082;-68
2021/08/05 04:40:21;;;;;;;8.90;7.90;;;12.80;99.90;;;;;;4969006;28;20047;-68
2021/08/05 04:42:47;;;;;;;9.43;8.40;;;12.90;99.90;;;;;;4986515;28;20050;-68
2021/08/05 04:45:13;;;;;;;9.60;8.13;;;12.90;99.90;;;;;;4986046;28;20105;-68
2021/08/05 04:47:55;;;;;;;10.18;8.10;;;13.00;99.90;;;;;;4985588;28;20400;-67
2021/08/05 04:50:22;;;;;;;8.55;7.65;;;13.00;99.90;;;;;;4985999;28;20057;-68
2021/08/05 04:52:48;;;;;;;10.18;7.50;;;13.00;99.90;;;;;;4985426;28;20066;-67
2021/08/05 04:55:14;;;;;;;9.98;7.63;;;13.10;99.90;;;;;;4968197;28;20070;-67
2021/08/05 04:57:51;;;;;;;9.68;8.32;;;13.20;99.90;;;;;;4985477;28;20507;-68
2021/08/05 05:00:30;;;;;;;10.32;8.55;;;13.20;99.90;;;;;;4986824;28;20055;-67
2021/08/05 05:02:56;;;;;;;11.32;8.98;;;13.20;99.90;;;;;;4985089;28;20133;-68
2021/08/05 05:05:25;;;;;;;9.27;8.23;;;13.30;99.90;;;;;;4985376;28;20042;-67
2021/08/05 05:07:51;;;;;;;9.30;8.30;;;13.40;99.90;;;;;;4986036;28;20073;-68
2021/08/05 05:10:18;;;;;;;10.75;9.70;;;13.50;99.90;;;;;;4985579;28;20050;-67
2021/08/05 05:12:45;;;;;;;11.10;9.98;;;13.50;99.90;;;;;;4968712;28;20102;-68
2021/08/05 05:15:12;;;;;;;11.20;10.00;;;13.60;99.90;;;;;;4986723;28;20053;-67
2021/08/05 05:17:39;;;;;;;12.80;10.00;;;13.60;99.90;;;;;;4985262;28;20078;-68
2021/08/05 05:20:06;;;;;;;15.02;10.18;;;13.60;99.90;;;;;;4985597;28;20051;-67
2021/08/05 05:22:33;;;;;;;13.52;10.07;;;13.70;99.90;;;;;;4972248;28;20077;-68
2021/08/05 05:24:59;;;;;;;12.25;10.95;;;13.70;99.90;;;;;;4990435;28;20045;-68
2021/08/05 05:27:25;;;;;;;12.27;10.93;;;13.70;99.90;;;;;;4971427;28;20047;-67
2021/08/05 05:29:51;;;;;;;12.95;11.65;;;13.80;99.90;;;;;;4988974;28;20134;-67
2021/08/05 05:32:18;;;;;;;14.40;12.10;;;13.80;99.90;;;;;;4989262;28;20038;-67
2021/08/05 05:34:43;;;;;;;14.75;11.95;;;13.90;99.90;;;;;;4988970;28;20050;-67
2021/08/05 05:37:09;;;;;;;14.07;12.25;;;13.90;99.90;;;;;;4989026;28;20043;-68
2021/08/05 05:39:35;;;;;;;15.38;12.77;;;14.00;99.90;;;;;;4989540;28;20062;-67
2021/08/05 05:42:01;;;;;;;14.30;12.80;;;14.10;99.90;;;;;;4980798;28;20043;-67
2021/08/05 05:44:27;;;;;;;14.00;12.57;;;14.10;99.90;;;;;;4972258;28;20130;-67
2021/08/05 05:46:53;;;;;;;15.45;12.77;;;14.20;99.90;;;;;;4988674;28;20043;-67
2021/08/05 05:49:19;;;;;;;14.20;12.70;;;14.30;99.90;;;;;;4989049;28;20038;-68
2021/08/05 05:51:44;;;;;;;15.15;13.60;;;14.40;99.90;;;;;;4989138;28;20042;-67
2021/08/05 05:54:10;;;;;;;15.55;13.40;;;14.50;99.90;;;;;;4989029;28;20047;-67
2021/08/05 05:56:36;;;;;;;14.45;13.05;;;14.50;99.90;;;;;;4988951;28;20043;-67
2021/08/05 05:59:02;;;;;;;15.55;13.95;;;14.60;99.90;;;;;;4990561;28;20151;-68
2021/08/05 06:01:30;;;;;;;17.38;13.65;;;14.60;99.90;;;;;;4993638;28;20043;-67
2021/08/05 06:03:56;;;;;;;14.45;12.95;;;14.70;99.90;;;;;;4988688;28;20123;-67
2021/08/05 06:06:22;;;;;;;18.15;15.45;;;14.70;99.90;;;;;;4972032;28;20050;-67
2021/08/05 06:08:48;;;;;;;15.30;13.25;;;14.70;99.90;;;;;;4989036;28;20070;-67
2021/08/05 06:11:13;;;;;;;14.13;12.63;;;14.70;99.90;;;;;;4988722;28;20050;-68
2021/08/05 06:13:39;;;;;;;17.27;14.27;;;14.80;99.90;;;;;;4988639;28;20043;-68
2021/08/05 06:16:05;;;;;;;15.77;13.63;;;14.80;99.90;;;;;;4988948;28;20054;-67
2021/08/05 06:18:31;;;;;;;15.80;14.20;;;14.80;99.90;;;;;;4988587;28;20675;-67
2021/08/05 06:20:56;;;;;;;16.17;14.48;;;14.80;99.90;;;;;;4988468;28;20042;-67
2021/08/05 06:23:25;;;;;;;16.38;14.68;;;14.80;99.90;;;;;;4976235;28;20046;-67
2021/08/05 06:25:51;;;;;;;15.88;14.25;;;14.80;99.90;;;;;;4955238;28;20058;-67
2021/08/05 06:28:17;;;;;;;14.80;12.80;;;14.80;99.90;;;;;;4983190;28;20046;-67
2021/08/05 06:30:42;;;;;;;15.75;12.93;;;14.80;99.90;;;;;;4988279;28;20491;-67
2021/08/05 06:33:08;;;;;;;14.23;12.73;;;14.90;99.90;;;;;;4987638;28;20062;-67
2021/08/05 06:35:34;;;;;;;14.32;12.82;;;14.90;99.90;;;;;;4987175;28;20100;-69
2021/08/05 06:38:00;;;;;;;15.70;13.90;;;14.90;99.90;;;;;;4957434;28;20480;-68
2021/08/05 06:40:25;;;;;;;15.00;13.50;;;14.90;99.90;;;;;;4986424;28;20043;-69
2021/08/05 06:42:51;;;;;;;15.05;13.30;;;15.00;99.90;;;;;;4983671;28;20046;-67
2021/08/05 06:45:17;;;;;;;16.10;14.45;;;15.00;99.90;;;;;;4985330;28;20053;-68
2021/08/05 06:47:46;;;;;;;14.75;13.23;;;15.00;99.90;;;;;;4984201;28;20039;-68
2021/08/05 06:50:13;;;;;;;16.05;14.35;;;15.00;99.90;;;;;;4987220;28;20559;-69
2021/08/05 06:52:39;;;;;;;16.60;13.77;;;15.00;99.90;;;;;;4987813;28;20065;-68
2021/08/05 06:55:05;;;;;;;15.88;14.27;;;15.00;99.90;;;;;;4987557;28;20121;-68
2021/08/05 06:57:32;;;;;;;16.48;14.68;;;15.10;99.90;;;;;;4985690;28;20145;-67
2021/08/05 06:59:58;;;;;;;19.02;16.38;;;15.10;99.90;;;;;;4985848;28;20043;-67
2021/08/05 07:02:24;;;;;;;16.25;14.65;;;15.10;99.90;;;;;;4968410;28;20046;-68
2021/08/05 07:04:51;;;;;;;20.02;17.30;;;15.20;99.90;;;;;;4985251;28;20059;-68
2021/08/05 07:07:17;;;;;;;18.52;16.15;;;15.20;99.90;;;;;;4983959;28;20050;-67
2021/08/05 07:09:43;;;;;;;18.55;16.63;;;15.30;99.90;;;;;;4987004;28;20557;-67
2021/08/05 07:12:08;;;;;;;18.85;16.98;;;15.40;99.90;;;;;;4977607;28;20046;-67
2021/08/05 07:14:34;;;;;;;19.02;17.10;;;15.50;99.90;;;;;;4967966;28;20500;-67
2021/08/05 07:17:00;;;;;;;18.15;16.45;;;15.60;99.90;;;;;;4966345;28;20102;-69
2021/08/05 07:19:26;;;;;;;16.15;14.48;;;15.70;99.90;;;;;;4987345;28;20047;-72
2021/08/05 07:21:53;;;;;;;17.98;16.17;;;15.80;99.90;;;;;;4968258;28;20053;-72
2021/08/05 07:24:18;;;;;;;17.13;15.43;;;15.80;99.90;;;;;;4986199;28;20043;-70
2021/08/05 07:26:44;;;;;;;15.18;13.63;;;16.00;99.90;;;;;;4984641;28;20043;-71
2021/08/05 07:29:10;;;;;;;17.88;16.08;;;16.00;99.90;;;;;;4985340;28;20053;-72
2021/08/05 07:31:36;;;;;;;17.17;15.38;;;16.10;99.90;;;;;;4968449;28;20046;-72
2021/08/05 07:34:03;;;;;;;16.48;14.77;;;16.20;99.90;;;;;;4969943;28;20042;-72
2021/08/05 07:36:29;;;;;;;16.33;14.73;;;16.40;99.90;;;;;;4986402;28;20567;-72
2021/08/05 07:38:55;;;;;;;15.05;13.57;;;16.40;99.90;;;;;;4967339;28;20078;-71
2021/08/05 07:41:20;;;;;;;15.05;12.85;;;16.40;99.90;;;;;;4983569;28;20038;-69
2021/08/05 07:43:46;;;;;;;14.57;13.18;;;16.50;99.90;;;;;;4979410;28;20578;-68
2021/08/05 07:46:13;;;;;;;14.73;13.30;;;16.70;99.90;;;;;;4946704;28;20043;-68
2021/08/05 07:48:39;;;;;;;15.88;14.27;;;16.70;99.90;;;;;;4956297;28;20594;-68
2021/08/05 07:51:05;;;;;;;15.02;13.50;;;16.60;99.90;;;;;;4966864;28;20051;-68
2021/08/05 07:53:30;;;;;;;14.57;13.07;;;16.60;99.90;;;;;;4937710;29;20066;-69
2021/08/05 07:55:56;;;;;;;14.10;12.75;;;16.70;99.90;;;;;;4971266;28;20047;-68
2021/08/05 07:58:22;;;;;;;13.50;12.25;;;16.70;99.90;;;;;;4954602;28;20061;-67
2021/08/05 08:00:48;;;;;;;13.15;11.80;;;16.70;99.90;;;;;;4961540;28;20045;-66
2021/08/05 08:03:15;;;;;;;14.43;13.13;;;16.70;99.90;;;;;;4967551;28;20051;-66
2021/08/05 08:05:44;;;;;;;15.00;13.60;;;16.70;99.90;;;;;;4979341;28;20050;-69
2021/08/05 08:08:09;;;;;;;16.50;15.00;;;16.70;99.90;;;;;;4971457;28;20059;-67
2021/08/05 08:10:36;;;;;;;14.68;13.32;;;16.70;99.90;;;;;;4964428;28;20057;-66
2021/08/05 08:13:02;;;;;;;15.30;13.80;;;16.80;99.90;;;;;;4971452;28;20050;-67
2021/08/05 08:15:28;;;;;;;12.02;10.57;;;16.80;99.90;;;;;;4969704;28;20081;-67
2021/08/05 08:17:54;;;;;;;12.98;11.70;;;16.90;99.90;;;;;;4981175;28;20043;-68
2021/08/05 08:20:21;;;;;;;13.10;11.77;;;16.90;99.90;;;;;;4977401;28;20062;-67
2021/08/05 08:22:47;;;;;;;13.98;12.65;;;16.90;99.90;;;;;;4980088;28;20538;-67
2021/08/05 08:25:14;;;;;;;15.05;13.65;;;17.00;99.90;;;;;;4970079;28;20074;-67
2021/08/05 08:27:41;;;;;;;14.18;12.77;;;17.20;99.90;;;;;;4979753;28;20062;-66
2021/08/05 08:30:09;;;;;;;14.77;13.38;;;17.20;99.90;;;;;;4966273;28;20078;-66
2021/08/05 08:32:35;;;;;;;13.68;12.38;;;17.30;99.90;;;;;;4977197;28;20588;-65
2021/08/05 08:35:01;;;;;;;13.77;12.50;;;17.40;99.90;;;;;;4967538;28;20053;-67
2021/08/05 08:37:27;;;;;;;11.25;10.15;;;17.60;99.90;;;;;;4951084;28;20292;-66
2021/08/05 08:39:53;;;;;;;11.63;10.50;;;17.70;99.90;;;;;;4968449;28;20542;-67
2021/08/05 08:42:19;;;;;;;9.90;8.90;;;17.80;99.90;;;;;;4979753;28;20046;-67
2021/08/05 08:44:45;;;;;;;10.43;9.35;;;17.90;99.90;;;;;;4972254;28;20065;-67
2021/08/05 08:47:11;;;;;;;10.52;9.57;;;17.90;99.90;;;;;;4963799;28;20062;-67
2021/08/05 08:49:42;;;;;;;9.27;8.38;;;18.00;99.90;;;;;;4970167;28;20066;-67
2021/08/05 08:52:09;;;;;;;10.18;9.18;;;18.10;99.90;;;;;;4981112;28;20101;-66
2021/08/05 08:54:43;;;;;;;10.00;9.00;;;18.20;99.90;;;;;;4937531;28;20098;-67
2021/08/05 08:57:13;;;;;;;10.30;9.32;;;18.20;99.90;;;;;;4976593;28;20125;-67
2021/08/05 08:59:40;;;;;;;11.15;10.00;;;18.30;99.90;;;;;;4966747;28;20051;-67
2021/08/05 09:02:06;;;;;;;10.50;9.40;;;18.30;99.90;;;;;;4976552;28;20174;-67
2021/08/05 09:04:34;;;;;;;10.18;9.27;;;18.40;99.90;;;;;;4966398;28;20086;-67
2021/08/05 09:07:01;;;;;;;9.02;8.13;;;18.50;99.90;;;;;;4980228;28;20046;-67
2021/08/05 09:09:27;;;;;;;9.88;9.05;;;18.50;99.90;;;;;;4969684;28;20047;-66
2021/08/05 09:11:53;;;;;;;10.20;9.30;;;18.60;99.90;;;;;;4948343;28;20056;-67
2021/08/05 09:14:53;;;;;;;7.70;7.00;;;18.60;99.90;;;;;;4962916;28;20652;-67
2021/08/05 09:17:21;;;;;;;;;;;18.70;99.90;;;;;;4899839;29;20048;-66
2021/08/05 09:19:51;;;;;;;8.43;7.53;;;18.80;99.90;;;;;;4891435;29;19930;-67
2021/08/05 09:22:30;;;;;;;8.10;7.10;;;18.80;99.90;;;;;;4901433;29;20053;-67
2021/08/05 09:24:56;;;;;;;8.30;7.50;;;18.90;99.90;;;;;;4888980;29;20056;-66
2021/08/05 09:27:33;;;;;;;7.80;7.10;;;19.00;99.90;;;;;;4897899;29;20068;-67
2021/08/05 09:30:00;;;;;;;7.20;6.60;;;19.10;99.90;;;;;;4887382;29;20079;-66
2021/08/05 09:32:29;;;;;;;7.70;7.00;;;19.20;99.90;;;;;;4897220;29;20120;-66
2021/08/05 09:35:09;;;;;;;7.68;6.93;;;19.40;99.90;;;;;;4872765;29;20057;-67
2021/08/05 09:37:37;;;;;;;6.13;5.53;;;19.50;99.90;;;;;;4888918;29;20104;-67
2021/08/05 09:40:13;;;;;;;7.32;6.63;;;19.60;99.90;;;;;;4872883;29;20061;-67
2021/08/05 09:42:40;;;;;;;4.65;4.13;;;19.70;99.90;;;;;;4899292;29;20076;-67
2021/08/05 09:45:07;;;;;;;4.30;3.90;;;19.90;99.90;;;;;;4859285;29;20064;-67
2021/08/05 09:47:42;;;;;;;7.63;5.18;;;20.00;99.90;;;;;;4898949;29;20056;-67
2021/08/05 09:50:08;;;;;;;6.30;5.53;;;20.20;99.90;;;;;;4889807;29;20059;-66
2021/08/05 09:52:35;;;;;;;6.88;5.53;;;20.20;99.90;;;;;;4929760;28;20051;-67
2021/08/05 09:55:07;;;;;;;6.18;5.53;;;20.20;99.90;;;;;;4951523;28;20058;-67
2021/08/05 09:57:36;;;;;;;5.35;4.82;;;20.20;99.90;;;;;;4976369;28;20065;-67
2021/08/05 10:00:09;;;;;;;5.63;4.73;;;20.30;99.90;;;;;;4965783;28;20384;-67
2021/08/05 10:02:43;;;;;;;7.40;5.70;;;20.40;99.90;;;;;;4977378;28;20316;-67
2021/08/05 10:05:10;;;;;;;6.82;5.22;;;20.40;99.90;;;;;;4966238;28;20051;-67
2021/08/05 10:07:49;;;;;;;6.53;5.35;;;20.50;99.90;;;;;;4979536;28;20585;-67
2021/08/05 10:10:16;;;;;;;6.68;5.88;;;20.60;99.90;;;;;;4971867;28;20047;-66
2021/08/05 10:12:53;;;;;;;6.53;5.93;;;20.80;99.90;;;;;;4969541;28;20081;-67
2021/08/05 10:15:20;;;;;;;6.38;5.72;;;20.90;99.90;;;;;;4951067;28;20055;-67
2021/08/05 10:17:50;;;;;;;6.28;5.68;;;21.00;99.90;;;;;;4981036;28;20053;-67
2021/08/05 10:20:16;;;;;;;6.03;4.82;;;21.10;99.90;;;;;;4955506;28;20491;-67
2021/08/05 10:22:42;;;;;;;5.35;4.85;;;21.20;99.90;;;;;;4965804;28;20104;-67
2021/08/05 10:25:11;;;;;;;3.80;3.50;;;21.40;99.90;;;;;;4955530;28;20149;-67
2021/08/05 10:27:38;;;;;;;4.32;3.88;;;21.40;99.90;;;;;;4979696;28;20098;-67
2021/08/05 10:30:08;;;;;;;3.45;3.15;;;21.40;99.90;;;;;;4967941;28;20055;-67
2021/08/05 10:32:34;;;;;;;3.60;3.30;;;21.40;99.90;;;;;;4979838;28;20122;-67
2021/08/05 10:35:01;;;;;;;4.05;3.03;;;21.30;99.90;;;;;;4969647;28;20055;-67
2021/08/05 10:37:27;;;;;;;3.47;3.17;;;21.30;99.90;;;;;;4979070;28;20051;-67
2021/08/05 10:39:53;;;;;;;6.22;4.00;;;21.30;99.90;;;;;;4941341;28;20121;-66
2021/08/05 10:42:20;;;;;;;4.60;3.92;;;21.20;99.90;;;;;;4980851;28;20142;-67
2021/08/05 10:44:48;;;;;;;3.65;3.17;;;21.30;99.90;;;;;;4970696;28;20146;-66
2021/08/05 10:47:21;;;;;;;5.22;3.42;;;21.20;99.90;;;;;;4982164;28;20134;-67
2021/08/05 10:49:50;;;;;;;4.00;3.60;;;21.30;99.90;;;;;;4971263;28;20050;-68
2021/08/05 10:52:34;;;;;;;4.43;4.03;;;21.20;99.90;;;;;;4982588;28;20050;-67
2021/08/05 10:55:29;;;;;;;4.00;3.60;;;21.30;99.90;;;;;;4967382;28;20078;-67
2021/08/05 10:58:12;;;;;;;6.25;3.80;;;21.40;99.90;;;;;;4977614;28;20047;-67
2021/08/05 11:01:04;;;;;;;4.95;4.00;;;21.50;99.90;;;;;;4965176;28;20050;-67
2021/08/05 11:03:37;;;;;;;4.50;4.10;;;21.50;99.90;;;;;;4965093;28;20047;-67
2021/08/05 11:06:05;;;;;;;5.22;4.38;;;21.60;99.90;;;;;;4978578;28;20135;-67
2021/08/05 11:08:32;;;;;;;5.07;3.78;;;21.70;99.90;;;;;;4966144;28;20043;-67
2021/08/05 11:11:20;;;;;;;3.97;3.55;;;21.80;99.90;;;;;;4978458;28;20047;-67
2021/08/05 11:13:59;;;;;;;4.55;4.03;;;21.90;99.90;;;;;;4964097;28;20058;-67
2021/08/05 11:16:57;;;;;;;5.65;4.03;;;22.10;99.90;;;;;;4965591;28;20053;-67
2021/08/05 11:19:25;;;;;;;4.07;3.53;;;22.20;99.90;;;;;;4899467;29;20048;-68
2021/08/05 11:21:51;;;;;;;4.53;4.10;;;22.30;99.90;;;;;;4903951;29;20159;-66
2021/08/05 11:24:56;;;;;;;4.65;3.83;;;22.40;99.90;;;;;;4901601;29;20054;-66
2021/08/05 11:27:22;;;;;;;4.10;3.40;;;22.50;99.90;;;;;;4846908;29;20050;-66
2021/08/05 11:29:49;;;;;;;3.58;3.28;;;22.50;99.90;;;;;;4838911;29;20121;-66
2021/08/05 11:32:26;;;;;;;4.43;3.45;;;22.60;99.90;;;;;;4845818;29;20073;-66
2021/08/05 11:34:54;;;;;;;4.90;3.70;;;22.50;99.90;;;;;;4839443;29;20066;-68
2021/08/05 11:37:20;;;;;;;4.05;3.30;;;22.40;99.90;;;;;;4847956;29;20050;-67
2021/08/05 11:39:51;;;;;;;4.45;3.92;;;22.40;99.90;;;;;;4828982;29;20050;-67
2021/08/05 11:42:21;;;;;;;5.18;3.90;;;22.50;99.90;;;;;;4842416;29;20125;-67
2021/08/05 11:44:56;;;;;;;4.03;3.65;;;22.50;99.90;;;;;;4834805;29;20173;-67
2021/08/05 11:47:34;;;;;;;3.45;3.15;;;22.50;99.90;;;;;;4851599;29;20122;-67
2021/08/05 11:50:03;;;;;;;4.68;3.80;;;22.50;99.90;;;;;;4835397;29;20050;-66
2021/08/05 11:52:29;;;;;;;4.22;3.83;;;22.50;99.90;;;;;;4845557;29;20065;-67
2021/08/05 11:55:04;;;;;;;6.35;4.13;;;22.60;99.90;;;;;;4866832;29;20059;-66
2021/08/05 11:57:40;;;;;;;4.60;4.20;;;22.60;99.90;;;;;;4916183;28;20470;-66
2021/08/05 12:00:17;;;;;;;5.90;4.38;;;22.50;99.90;;;;;;4961868;28;20126;-67
2021/08/05 12:02:44;;;;;;;5.78;4.72;;;22.60;99.90;;;;;;4978244;28;20043;-66
2021/08/05 12:05:12;;;;;;;5.15;4.65;;;22.50;99.90;;;;;;4968045;28;20050;-66
2021/08/05 12:07:39;;;;;;;4.43;3.95;;;22.60;99.90;;;;;;4977301;28;20050;-67
2021/08/05 12:10:12;;;;;;;5.55;4.80;;;22.60;99.90;;;;;;4969230;28;20054;-66
2021/08/05 12:12:39;;;;;;;5.03;3.70;;;22.60;99.90;;;;;;4962022;28;20101;-66
2021/08/05 12:15:07;;;;;;;4.90;3.92;;;22.70;99.90;;;;;;4966910;28;20058;-65
2021/08/05 12:17:43;;;;;;;3.53;3.20;;;22.80;99.90;;;;;;4979868;28;20114;-66
2021/08/05 12:20:21;;;;;;;4.25;3.85;;;22.90;99.90;;;;;;4953513;28;20085;-66
2021/08/05 12:22:52;;;;;;;4.95;3.55;;;23.00;99.90;;;;;;4978416;28;20042;-66
2021/08/05 12:25:27;;;;;;;4.22;3.58;;;22.80;99.90;;;;;;4953967;28;20159;-67
2021/08/05 12:27:55;;;;;;;4.47;3.85;;;22.80;99.90;;;;;;4975928;28;20124;-66
2021/08/05 12:30:21;;;;;;;3.70;3.20;;;22.70;99.90;;;;;;4958313;28;20135;-66
2021/08/05 12:32:59;;;;;;;5.03;3.42;;;22.80;99.90;;;;;;4955751;28;20055;-67
2021/08/05 12:35:24;;;;;;;4.18;3.50;;;22.70;99.90;;;;;;4950005;28;20051;-66
2021/08/05 12:38:05;;;;;;;6.40;3.58;;;22.70;99.90;;;;;;4968926;28;20058;-67
2021/08/05 12:40:32;;;;;;;3.72;3.20;;;22.80;99.90;;;;;;4968548;28;20046;-66
2021/08/05 12:43:00;;;;;;;4.45;4.05;;;22.70;99.90;;;;;;4979335;28;20038;-66
2021/08/05 12:45:27;;;;;;;6.30;4.50;;;22.80;99.90;;;;;;4969826;28;20058;-67
2021/08/05 12:47:53;;;;;;;4.93;4.03;;;22.60;99.90;;;;;;4973542;28;20039;-68